createdAt,value
2023-02-22T00:01:51.014Z,98553.66
2023-02-22T00:04:21.125Z,98553.66
2023-02-22T00:06:49.625Z,98563.66
2023-02-22T00:09:21.424Z,98567.97
2023-02-22T00:11:49.074Z,98570.34
2023-02-22T00:14:15.687Z,98578.59
2023-02-22T00:16:42.383Z,98585.19
2023-02-22T00:19:10.543Z,98591.09
2023-02-22T00:21:37.433Z,98590.94
2023-02-22T00:24:22.826Z,98595.72
2023-02-22T00:26:56.991Z,98603.13
2023-02-22T00:29:24.250Z,98609.91
2023-02-22T00:31:51.123Z,98617.47
2023-02-22T00:34:17.865Z,98619.91
2023-02-22T00:36:50.671Z,98624.81
2023-02-22T00:39:17.234Z,98635.78
2023-02-22T00:41:44.080Z,98633.31
2023-02-22T00:44:11.041Z,98640.19
2023-02-22T00:46:37.614Z,98648.44
2023-02-22T00:49:05.237Z,98644.91
2023-02-22T00:51:31.835Z,98653.28
2023-02-22T00:53:58.398Z,98654.13
2023-02-22T00:56:25.338Z,98664.97
2023-02-22T00:58:51.902Z,98664.09
2023-02-22T01:01:18.817Z,98676.53
2023-02-22T01:03:45.970Z,98673.06
2023-02-22T01:06:12.642Z,98682.31
2023-02-22T01:08:44.248Z,98684.78
2023-02-22T01:11:10.860Z,98690.66
2023-02-22T01:13:37.442Z,98693.94
2023-02-22T01:16:04.560Z,98694.88
2023-02-22T01:18:31.132Z,98701.66
2023-02-22T01:20:57.717Z,98704.97
2023-02-22T01:23:24.255Z,98705.84
2023-02-22T01:25:50.829Z,98711.63
2023-02-22T01:28:17.719Z,98721.72
2023-02-22T01:30:44.422Z,98713.81
2023-02-22T01:33:12.779Z,98714.63
2023-02-22T01:35:41.030Z,98721.34
2023-02-22T01:38:08.625Z,98725.44
2023-02-22T01:40:38.400Z,98727.00
2023-02-22T01:43:16.382Z,98728.44
2023-02-22T01:45:51.605Z,98744.44
2023-02-22T01:48:21.114Z,98743.66
2023-02-22T01:50:53.982Z,98744.59
2023-02-22T01:53:23.939Z,98748.06
2023-02-22T01:55:51.455Z,98759.72
2023-02-22T01:58:20.436Z,98763.06
2023-02-22T02:00:47.010Z,98764.09
2023-02-22T02:03:27.676Z,98769.16
2023-02-22T02:05:58.458Z,98775.84
2023-02-22T02:08:38.096Z,98784.38
2023-02-22T02:11:09.067Z,98785.25
2023-02-22T02:13:36.589Z,98780.19
2023-02-22T02:16:03.509Z,98787.75
2023-02-22T02:18:30.247Z,98798.53
2023-02-22T02:20:56.843Z,98796.91
2023-02-22T02:23:41.054Z,98799.44
2023-02-22T02:26:44.751Z,98807.00
2023-02-22T02:29:35.707Z,98817.09
2023-02-22T02:32:17.515Z,98813.53
2023-02-22T02:34:54.932Z,98819.38
2023-02-22T02:37:27.523Z,98832.09
2023-02-22T02:40:24.030Z,98823.31
2023-02-22T02:42:57.550Z,98826.94
2023-02-22T02:45:33.055Z,98843.66
2023-02-22T02:48:01.361Z,98835.16
2023-02-22T02:50:41.659Z,98843.59
2023-02-22T02:53:09.918Z,98846.97
2023-02-22T02:55:37.528Z,98855.34
2023-02-22T02:58:06.450Z,98851.22
2023-02-22T03:00:40.738Z,98853.75
2023-02-22T03:03:53.715Z,98859.59
2023-02-22T03:06:34.539Z,98862.84
2023-02-22T03:09:23.791Z,98867.03
2023-02-22T03:12:15.809Z,98879.59
2023-02-22T03:14:55.896Z,98875.53
2023-02-22T03:17:26.721Z,98880.50
2023-02-22T03:20:04.838Z,98883.78
2023-02-22T03:22:37.720Z,98896.38
2023-02-22T03:25:51.187Z,98900.63
2023-02-22T03:28:21.547Z,98902.34
2023-02-22T03:30:53.716Z,98898.91
2023-02-22T03:33:36.356Z,98905.69
2023-02-22T03:36:28.998Z,98902.34
2023-02-22T03:38:59.627Z,98912.44
2023-02-22T03:41:28.647Z,98905.47
2023-02-22T03:44:02.722Z,98910.63
2023-02-22T03:46:31.549Z,98904.53
2023-02-22T03:49:14.195Z,98918.94
2023-02-22T03:51:41.316Z,98919.75
2023-02-22T03:54:08.474Z,98928.09
2023-02-22T03:56:50.108Z,98927.94
2023-02-22T03:59:17.088Z,98939.13
2023-02-22T04:01:43.854Z,98931.47
2023-02-22T04:04:10.614Z,98936.66
2023-02-22T04:06:39.326Z,98936.53
2023-02-22T04:09:08.623Z,98934.78
2023-02-22T04:11:35.232Z,98947.34
2023-02-22T04:14:01.778Z,98953.31
2023-02-22T04:16:28.487Z,98952.41
2023-02-22T04:18:55.034Z,98962.66
2023-02-22T04:21:21.555Z,98960.88
2023-02-22T04:23:48.075Z,98965.00
2023-02-22T04:26:14.631Z,98964.06
2023-02-22T04:28:41.163Z,98969.91
2023-02-22T04:31:07.733Z,98970.06
2023-02-22T04:33:34.424Z,98970.97
2023-02-22T04:36:01.073Z,98971.72
2023-02-22T04:38:27.904Z,98978.56
2023-02-22T04:40:56.266Z,98984.69
2023-02-22T04:43:22.885Z,98988.00
2023-02-22T04:45:49.469Z,98999.84
2023-02-22T04:48:16.282Z,98991.16
2023-02-22T04:50:42.823Z,99006.41
2023-02-22T04:53:09.890Z,99002.84
2023-02-22T04:55:36.558Z,99015.53
2023-02-22T04:58:03.492Z,99014.66
2023-02-22T05:00:30.153Z,99024.75
2023-02-22T05:02:56.758Z,99033.28
2023-02-22T05:05:23.462Z,99028.31
2023-02-22T05:07:50.251Z,99040.06
2023-02-22T05:10:17.470Z,99048.44
2023-02-22T05:12:44.007Z,99053.22
2023-02-22T05:15:11.255Z,99058.22
2023-02-22T05:17:37.814Z,99060.66
2023-02-22T05:20:05.039Z,99070.59
2023-02-22T05:22:31.529Z,99067.75
2023-02-22T05:24:58.584Z,99073.59
2023-02-22T05:27:25.187Z,99086.16
2023-02-22T05:29:51.733Z,99097.00
2023-02-22T05:32:18.321Z,99093.72
2023-02-22T05:34:45.647Z,99099.31
2023-02-22T05:37:12.286Z,99105.16
2023-02-22T05:39:39.282Z,99114.91
2023-02-22T05:42:05.861Z,99106.50
2023-02-22T05:44:32.372Z,99113.88
2023-02-22T05:46:58.935Z,99114.00
2023-02-22T05:49:25.471Z,99114.69
2023-02-22T05:51:51.990Z,99113.59
2023-02-22T05:54:18.603Z,99129.03
2023-02-22T05:56:45.158Z,99128.72
2023-02-22T05:59:11.973Z,99129.75
2023-02-22T06:01:38.562Z,99142.50
2023-02-22T06:04:05.124Z,99134.78
2023-02-22T06:06:31.654Z,99140.88
2023-02-22T06:08:58.387Z,99145.97
2023-02-22T06:11:24.901Z,99154.50
2023-02-22T06:13:52.755Z,99159.63
2023-02-22T06:16:21.761Z,99163.78
2023-02-22T06:18:49.076Z,99174.69
2023-02-22T06:21:15.869Z,99178.81
2023-02-22T06:23:42.667Z,99178.75
2023-02-22T06:26:09.191Z,99184.44
2023-02-22T06:28:35.750Z,99197.59
2023-02-22T06:31:02.411Z,99204.38
2023-02-22T06:33:28.952Z,99194.28
2023-02-22T06:35:55.534Z,99204.38
2023-02-22T06:38:23.889Z,99209.31
2023-02-22T06:40:50.451Z,99213.59
2023-02-22T06:43:17.627Z,99209.25
2023-02-22T06:45:44.377Z,99212.72
2023-02-22T06:48:10.941Z,99220.28
2023-02-22T06:50:37.459Z,99223.97
2023-02-22T06:53:04.211Z,99222.31
2023-02-22T06:55:32.904Z,99226.13
2023-02-22T06:58:00.075Z,99237.16
2023-02-22T07:00:28.855Z,99240.47
2023-02-22T07:02:56.150Z,99232.81
2023-02-22T07:05:24.383Z,99230.56
2023-02-22T07:07:53.122Z,99239.75
2023-02-22T07:10:28.611Z,99243.06
2023-02-22T07:12:55.216Z,99246.69
2023-02-22T07:15:24.075Z,99245.69
2023-02-22T07:17:52.079Z,99248.13
2023-02-22T07:20:20.825Z,99247.81
2023-02-22T07:22:48.957Z,99256.56
2023-02-22T07:25:15.657Z,99256.47
2023-02-22T07:27:43.300Z,99264.03
2023-02-22T07:30:18.061Z,99265.47
2023-02-22T07:32:45.466Z,99264.38
2023-02-22T07:35:21.718Z,99259.09
2023-02-22T07:37:48.329Z,99266.56
2023-02-22T07:40:16.710Z,99270.13
2023-02-22T07:42:59.596Z,99271.38
2023-02-22T07:45:35.663Z,99273.59
2023-02-22T07:48:04.635Z,99276.69
2023-02-22T07:50:32.651Z,99276.25
2023-02-22T07:53:01.515Z,99279.06
2023-02-22T07:55:30.358Z,99277.94
2023-02-22T07:57:59.862Z,99276.81
2023-02-22T08:00:32.073Z,99281.16
2023-02-22T08:03:01.162Z,99277.53
2023-02-22T08:05:28.630Z,99294.25
2023-02-22T08:07:55.491Z,99281.06
2023-02-22T08:10:24.006Z,99285.13
2023-02-22T08:12:51.585Z,99293.09
2023-02-22T08:15:21.601Z,99290.63
2023-02-22T08:17:48.201Z,99294.72
2023-02-22T08:20:14.795Z,99294.41
2023-02-22T08:22:43.912Z,99304.59
2023-02-22T08:25:11.008Z,99300.53
2023-02-22T08:27:37.573Z,99309.06
2023-02-22T08:30:05.343Z,99306.31
2023-02-22T08:32:32.015Z,99307.03
2023-02-22T08:34:58.709Z,99312.06
2023-02-22T08:37:25.265Z,99304.50
2023-02-22T08:39:53.349Z,99319.16
2023-02-22T08:42:19.871Z,99322.34
2023-02-22T08:44:46.526Z,99311.16
2023-02-22T08:47:13.106Z,99319.81
2023-02-22T08:49:39.688Z,99311.91
2023-02-22T08:52:06.268Z,99317.75
2023-02-22T08:54:32.780Z,99318.72
2023-02-22T08:56:59.333Z,99323.13
2023-02-22T08:59:26.015Z,99323.91
2023-02-22T09:01:52.684Z,99324.78
2023-02-22T09:04:19.282Z,99327.38
2023-02-22T09:06:51.797Z,99332.75
2023-02-22T09:09:21.337Z,99321.22
2023-02-22T09:11:53.000Z,99333.75
2023-02-22T09:14:19.779Z,99338.97
2023-02-22T09:16:46.432Z,99337.41
2023-02-22T09:19:14.372Z,99335.09
2023-02-22T09:21:40.963Z,99335.25
2023-02-22T09:24:11.145Z,99332.63
2023-02-22T09:26:42.788Z,99343.75
2023-02-22T09:29:09.784Z,99344.72
2023-02-22T09:31:38.250Z,99350.69
2023-02-22T09:34:13.650Z,99342.91
2023-02-22T09:36:44.068Z,99352.31
2023-02-22T09:39:11.369Z,99343.75
2023-02-22T09:42:05.903Z,99346.59
2023-02-22T09:44:38.719Z,99349.28
2023-02-22T09:47:10.683Z,99346.91
2023-02-22T09:49:47.318Z,99351.25
2023-02-22T09:52:28.712Z,99348.66
2023-02-22T09:55:30.808Z,99340.59
2023-02-22T09:58:01.554Z,99345.66
2023-02-22T10:00:33.916Z,99340.81
2023-02-22T10:03:28.527Z,99348.22
2023-02-22T10:06:06.059Z,99345.44
2023-02-22T10:08:34.440Z,99342.25
2023-02-22T10:11:16.065Z,99345.72
2023-02-22T10:14:11.523Z,99336.50
2023-02-22T10:16:53.267Z,99339.13
2023-02-22T10:19:45.596Z,99339.09
2023-02-22T10:22:37.444Z,99345.88
2023-02-22T10:25:19.340Z,99339.09
2023-02-22T10:27:57.362Z,99333.75
2023-02-22T10:30:30.423Z,99341.53
2023-02-22T10:33:26.732Z,99338.75
2023-02-22T10:35:55.523Z,99340.47
2023-02-22T10:38:25.307Z,99347.34
2023-02-22T10:41:18.901Z,99349.94
2023-02-22T10:43:46.136Z,99351.81
2023-02-22T10:46:19.004Z,99348.31
2023-02-22T10:48:49.923Z,99350.09
2023-02-22T10:51:16.491Z,99345.94
2023-02-22T10:53:43.159Z,99352.72
2023-02-22T10:56:24.655Z,99354.03
2023-02-22T10:59:02.531Z,99355.28
2023-02-22T11:01:31.878Z,99358.88
2023-02-22T11:04:13.269Z,99369.09
2023-02-22T11:06:42.534Z,99360.34
2023-02-22T11:09:22.588Z,99361.84
2023-02-22T11:11:51.019Z,99357.25
2023-02-22T11:14:29.454Z,99364.72
2023-02-22T11:16:58.579Z,99367.16
2023-02-22T11:19:31.065Z,99369.59
2023-02-22T11:22:03.257Z,99373.69
2023-02-22T11:24:40.369Z,99375.47
2023-02-22T11:27:26.777Z,99365.97
2023-02-22T11:29:53.406Z,99381.44
2023-02-22T11:32:22.440Z,99382.94
2023-02-22T11:35:03.554Z,99379.47
2023-02-22T11:37:36.620Z,99377.91
2023-02-22T11:40:22.378Z,99379.34
2023-02-22T11:43:05.955Z,99375.22
2023-02-22T11:45:33.002Z,99375.06
2023-02-22T11:48:05.940Z,99370.00
2023-02-22T11:51:03.733Z,99370.53
2023-02-22T11:53:52.105Z,99367.09
2023-02-22T11:56:36.950Z,99373.69
2023-02-22T11:59:13.395Z,99374.25
2023-02-22T12:01:47.870Z,99376.25
2023-02-22T12:04:41.339Z,99374.56
2023-02-22T12:07:10.851Z,99372.19
2023-02-22T12:09:43.420Z,99372.56
2023-02-22T12:12:39.185Z,99377.41
2023-02-22T12:15:08.444Z,99381.84
2023-02-22T12:17:35.040Z,99384.00
2023-02-22T12:20:10.282Z,99387.59
2023-02-22T12:22:46.532Z,99390.19
2023-02-22T12:25:16.011Z,99391.13
2023-02-22T12:28:25.501Z,99404.88
2023-02-22T12:31:11.538Z,99394.38
2023-02-22T12:33:49.476Z,99393.06
2023-02-22T12:36:21.042Z,99395.75
2023-02-22T12:38:57.424Z,99396.38
2023-02-22T12:42:01.774Z,99392.94
2023-02-22T12:44:37.911Z,99407.06
2023-02-22T12:47:07.820Z,99405.19
2023-02-22T12:49:41.270Z,99406.59
2023-02-22T12:52:36.815Z,99408.88
2023-02-22T12:55:21.343Z,99407.91
2023-02-22T12:58:01.007Z,99400.09
2023-02-22T13:00:44.917Z,99404.84
2023-02-22T13:03:37.760Z,99407.28
2023-02-22T13:06:10.185Z,99405.59
2023-02-22T13:08:48.332Z,99412.50
2023-02-22T13:11:27.676Z,99409.41
2023-02-22T13:14:12.149Z,99404.38
2023-02-22T13:17:06.929Z,99406.03
2023-02-22T13:19:45.330Z,99404.22
2023-02-22T13:22:28.924Z,99416.75
2023-02-22T13:25:01.438Z,99419.88
2023-02-22T13:27:42.159Z,99416.25
2023-02-22T13:30:36.083Z,99417.91
2023-02-22T13:33:20.720Z,99426.28
2023-02-22T13:35:56.224Z,99433.50
2023-02-22T13:38:56.213Z,99434.81
2023-02-22T13:41:43.120Z,99439.97
2023-02-22T13:44:37.185Z,99433.00
2023-02-22T13:47:27.277Z,99443.41
2023-02-22T13:50:24.383Z,99453.50
2023-02-22T13:52:53.067Z,99449.00
2023-02-22T13:55:27.140Z,99452.22
2023-02-22T13:58:02.981Z,99447.97
2023-02-22T14:00:41.240Z,99455.72
2023-02-22T14:03:36.404Z,99459.78
2023-02-22T14:06:07.747Z,99458.06
2023-02-22T14:08:34.212Z,99465.44
2023-02-22T14:11:01.346Z,99468.66
2023-02-22T14:13:30.006Z,99462.59
2023-02-22T14:16:02.737Z,99464.16
2023-02-22T14:18:43.267Z,99467.66
2023-02-22T14:21:14.140Z,99462.59
2023-02-22T14:23:42.254Z,99465.88
2023-02-22T14:26:30.157Z,99465.88
2023-02-22T14:29:09.032Z,99467.47
2023-02-22T14:32:00.778Z,99464.84
2023-02-22T14:34:49.445Z,99466.50
2023-02-22T14:37:24.891Z,99470.75
2023-02-22T14:40:12.862Z,99463.72
2023-02-22T14:42:45.740Z,99456.16
2023-02-22T14:45:24.818Z,99459.38
2023-02-22T14:48:03.990Z,99470.59
2023-02-22T14:50:39.289Z,99474.69
2023-02-22T14:53:33.710Z,99481.31
2023-02-22T14:56:14.617Z,99482.06
2023-02-22T14:58:52.318Z,99482.06
2023-02-22T15:01:20.187Z,99486.97
2023-02-22T15:03:49.738Z,99486.97
2023-02-22T15:06:25.865Z,99481.63
2023-02-22T15:09:25.082Z,99481.56
2023-02-22T15:12:10.846Z,99476.50
2023-02-22T15:14:38.929Z,99478.00
2023-02-22T15:17:24.978Z,99470.25
2023-02-22T15:19:52.665Z,99488.00
2023-02-22T15:22:26.296Z,99486.22
2023-02-22T15:25:11.678Z,99484.31
2023-02-22T15:27:41.052Z,99491.88
2023-02-22T15:30:19.207Z,99490.94
2023-02-22T15:33:02.667Z,99492.50
2023-02-22T15:35:32.872Z,99499.28
2023-02-22T15:38:11.400Z,99504.34
2023-02-22T15:40:42.938Z,99509.19
2023-02-22T15:43:24.471Z,99511.72
2023-02-22T15:45:52.018Z,99517.53
2023-02-22T15:48:19.157Z,99522.75
2023-02-22T15:51:06.517Z,99522.94
2023-02-22T15:53:47.865Z,99526.44
2023-02-22T15:56:25.134Z,99530.50
2023-02-22T15:58:58.772Z,99539.78
2023-02-22T16:01:26.231Z,99541.44
2023-02-22T16:03:59.693Z,99539.78
2023-02-22T16:06:36.724Z,99553.38
2023-02-22T16:09:12.785Z,99560.94
2023-02-22T16:11:44.097Z,99560.94
2023-02-22T16:14:40.334Z,99570.03
2023-02-22T16:17:29.616Z,99567.63
2023-02-22T16:20:00.642Z,99569.09
2023-02-22T16:22:34.043Z,99575.78
2023-02-22T16:25:18.728Z,99576.66
2023-02-22T16:27:49.204Z,99580.03
2023-02-22T16:30:24.696Z,99588.28
2023-02-22T16:32:54.368Z,99584.72
2023-02-22T16:35:21.541Z,99595.69
2023-02-22T16:37:55.020Z,99591.25
2023-02-22T16:40:44.555Z,99601.22
2023-02-22T16:43:15.150Z,99602.69
2023-02-22T16:45:42.676Z,99601.81
2023-02-22T16:48:17.058Z,99606.84
2023-02-22T16:50:43.640Z,99606.78
2023-02-22T16:53:10.773Z,99610.84
2023-02-22T16:55:37.347Z,99612.41
2023-02-22T16:58:04.692Z,99615.69
2023-02-22T17:00:31.643Z,99612.22
2023-02-22T17:03:03.817Z,99619.78
2023-02-22T17:05:31.847Z,99615.53
2023-02-22T17:07:58.398Z,99618.81
2023-02-22T17:10:26.130Z,99625.59
2023-02-22T17:12:56.086Z,99615.69
2023-02-22T17:15:26.367Z,99625.78
2023-02-22T17:17:54.087Z,99618.06
2023-02-22T17:20:30.986Z,99615.53
2023-02-22T17:23:04.663Z,99617.25
2023-02-22T17:25:33.670Z,99625.59
2023-02-22T17:28:00.261Z,99625.50
2023-02-22T17:30:27.081Z,99623.69
2023-02-22T17:32:56.064Z,99621.91
2023-02-22T17:35:26.990Z,99626.19
2023-02-22T17:37:53.649Z,99631.03
2023-02-22T17:40:20.256Z,99635.09
2023-02-22T17:42:46.893Z,99634.91
2023-02-22T17:45:14.075Z,99639.78
2023-02-22T17:47:44.421Z,99643.25
2023-02-22T17:50:15.317Z,99642.59
2023-02-22T17:52:43.125Z,99640.06
2023-02-22T17:55:11.545Z,99649.09
2023-02-22T17:57:44.105Z,99652.38
2023-02-22T18:00:23.336Z,99649.88
2023-02-22T18:02:51.570Z,99664.50
2023-02-22T18:05:18.850Z,99668.88
2023-02-22T18:07:46.470Z,99662.56
2023-02-22T18:10:13.327Z,99658.22
2023-02-22T18:12:40.277Z,99664.59
2023-02-22T18:15:08.734Z,99666.81
2023-02-22T18:17:37.246Z,99675.63
2023-02-22T18:20:13.958Z,99678.63
2023-02-22T18:22:44.319Z,99680.94
2023-02-22T18:25:11.839Z,99684.91
2023-02-22T18:27:38.435Z,99684.72
2023-02-22T18:30:06.172Z,99685.59
2023-02-22T18:32:33.531Z,99689.09
2023-02-22T18:35:00.927Z,99688.22
2023-02-22T18:37:28.288Z,99692.59
2023-02-22T18:39:55.768Z,99690.25
2023-02-22T18:42:26.611Z,99691.03
2023-02-22T18:44:54.647Z,99692.66
2023-02-22T18:47:21.984Z,99695.19
2023-02-22T18:49:48.817Z,99698.88
2023-02-22T18:52:15.763Z,99699.06
2023-02-22T18:54:43.977Z,99700.81
2023-02-22T18:57:12.736Z,99704.88
2023-02-22T18:59:40.148Z,99705.84
2023-02-22T19:02:13.158Z,99705.53
2023-02-22T19:04:39.963Z,99708.84
2023-02-22T19:07:07.039Z,99708.75
2023-02-22T19:09:33.655Z,99709.63
2023-02-22T19:12:00.231Z,99721.34
2023-02-22T19:14:26.756Z,99723.88
2023-02-22T19:16:56.553Z,99723.75
2023-02-22T19:19:26.088Z,99735.47
2023-02-22T19:21:53.145Z,99737.03
2023-02-22T19:24:20.460Z,99741.16
2023-02-22T19:26:57.266Z,99746.19
2023-02-22T19:29:24.029Z,99743.78
2023-02-22T19:31:51.745Z,99751.16
2023-02-22T19:34:21.804Z,99746.03
2023-02-22T19:36:49.067Z,99750.94
2023-02-22T19:39:17.371Z,99745.13
2023-02-22T19:41:44.216Z,99748.41
2023-02-22T19:44:12.246Z,99750.84
2023-02-22T19:46:39.800Z,99745.59
2023-02-22T19:49:07.594Z,99757.41
2023-02-22T19:51:34.503Z,99758.28
2023-02-22T19:54:06.446Z,99749.78
2023-02-22T19:56:35.502Z,99753.16
2023-02-22T19:59:13.551Z,99764.00
2023-02-22T20:01:44.644Z,99765.66
2023-02-22T20:04:17.751Z,99770.88
2023-02-22T20:06:46.259Z,99765.81
2023-02-22T20:09:16.848Z,99776.03
2023-02-22T20:11:44.408Z,99771.84
2023-02-22T20:14:17.532Z,99782.69
2023-02-22T20:16:44.340Z,99782.50
2023-02-22T20:19:11.690Z,99787.53
2023-02-22T20:21:38.408Z,99788.47
2023-02-22T20:24:07.583Z,99791.91
2023-02-22T20:26:36.990Z,99797.69
2023-02-22T20:29:05.591Z,99800.31
2023-02-22T20:31:33.411Z,99802.28
2023-02-22T20:34:01.140Z,99798.09
2023-02-22T20:36:29.792Z,99806.31
2023-02-22T20:39:00.342Z,99800.50
2023-02-22T20:41:32.618Z,99809.81
2023-02-22T20:44:01.366Z,99803.78
2023-02-22T20:46:31.461Z,99804.56
2023-02-22T20:49:00.406Z,99811.25
2023-02-22T20:51:28.141Z,99802.63
2023-02-22T20:53:56.502Z,99798.38
2023-02-22T20:56:24.374Z,99802.53
2023-02-22T20:58:50.970Z,99809.19
2023-02-22T21:01:20.273Z,99805.78
2023-02-22T21:03:47.316Z,99809.97
2023-02-22T21:06:18.121Z,99823.31
2023-02-22T21:08:49.312Z,99820.59
2023-02-22T21:11:18.115Z,99824.75
2023-02-22T21:13:44.985Z,99833.38
2023-02-22T21:16:19.204Z,99831.66
2023-02-22T21:18:45.738Z,99836.88
2023-02-22T21:21:13.215Z,99838.63
2023-02-22T21:23:40.840Z,99838.63
2023-02-22T21:26:13.552Z,99838.72
2023-02-22T21:28:50.838Z,99846.94
2023-02-22T21:31:23.404Z,99838.63
2023-02-22T21:33:53.078Z,99834.72
2023-02-22T21:36:21.118Z,99843.16
2023-02-22T21:38:53.274Z,99844.81
2023-02-22T21:41:20.983Z,99852.91
2023-02-22T21:43:52.020Z,99852.25
2023-02-22T21:46:19.382Z,99846.84
2023-02-22T21:48:48.924Z,99858.66
2023-02-22T21:51:25.409Z,99852.53
2023-02-22T21:53:54.358Z,99859.88
2023-02-22T21:56:24.364Z,99866.31
2023-02-22T21:58:59.291Z,99871.34
2023-02-22T22:01:31.894Z,99880.53
2023-02-22T22:04:00.326Z,99880.63
2023-02-22T22:06:29.217Z,99884.78
2023-02-22T22:08:57.077Z,99877.41
2023-02-22T22:11:25.160Z,99885.50
2023-02-22T22:13:53.613Z,99882.75
2023-02-22T22:16:22.246Z,99882.75
2023-02-22T22:18:48.954Z,99884.41
2023-02-22T22:21:23.468Z,99883.41
2023-02-22T22:23:54.260Z,99902.00
2023-02-22T22:26:21.707Z,99891.72
2023-02-22T22:28:51.893Z,99900.22
2023-02-22T22:31:21.014Z,99904.84
2023-02-22T22:33:48.298Z,99903.28
2023-02-22T22:36:17.218Z,99911.59
2023-02-22T22:38:46.993Z,99912.28
2023-02-22T22:41:15.108Z,99913.78
2023-02-22T22:43:43.688Z,99915.31
2023-02-22T22:46:10.410Z,99922.66
2023-02-22T22:48:39.001Z,99920.13
2023-02-22T22:51:12.258Z,99925.25
2023-02-22T22:53:42.017Z,99928.41
2023-02-22T22:56:14.198Z,99929.31
2023-02-22T22:58:43.900Z,99938.47
2023-02-22T23:01:18.113Z,99934.88
2023-02-22T23:03:59.796Z,99940.00
2023-02-22T23:06:40.742Z,99949.97
2023-02-22T23:09:13.802Z,99948.19
2023-02-22T23:11:45.626Z,99942.63
2023-02-22T23:14:14.940Z,99944.81
2023-02-22T23:16:42.655Z,99946.88
2023-02-22T23:19:09.419Z,99956.16
2023-02-22T23:21:36.584Z,99960.31
2023-02-22T23:24:07.264Z,99968.50
2023-02-22T23:26:34.359Z,99969.38
2023-02-22T23:29:02.412Z,99967.53
2023-02-22T23:31:29.682Z,99973.97
2023-02-22T23:33:58.658Z,99968.56
2023-02-22T23:36:26.454Z,99978.28
2023-02-22T23:38:54.188Z,99978.56
2023-02-22T23:41:21.016Z,99980.13
2023-02-22T23:43:47.661Z,99987.31
2023-02-22T23:46:18.658Z,99981.19
2023-02-22T23:48:54.507Z,99985.50
2023-02-22T23:51:25.913Z,99988.31
2023-02-22T23:53:55.856Z,99990.25
2023-02-22T23:56:24.995Z,99996.66
2023-02-22T23:58:51.895Z,100000.22
